AFR59GY LFPO-LFCR
Flight info
| Callsign | AFR59GY |
|---|---|
| Flight time | 0h 56m |
| Altitude | 33000 |
| Route | ERIXU DCT ETAMO DCT ADEKA DCT MOKDI/N0351F190 A27 MEN |
| Aircraft | A320/M-SDE3FGHIRWY/LB1 |
Departure
| Time | 2026-05-01 10:52 |
|---|---|
| Airport | Paris-Orly Airport (LFPO) |
Arrival
| Time | 2026-05-01 11:49 |
|---|---|
| Airport | Rodez–Aveyron Airport (LFCR) |
| Time | Latitude | Longitude | Altitude | Speed | Heading |
|---|---|---|---|---|---|
| 2026-05-01 10:26 | 48.72845 | 2.35754 | 294 ft | 0 kts | 14° |
| 2026-05-01 10:42 | 48.72829 | 2.35748 | 297 ft | 4 kts | 14° |
| 2026-05-01 10:43 | 48.72808 | 2.35740 | 297 ft | 3 kts | 14° |
| 2026-05-01 10:43 | 48.72787 | 2.35722 | 299 ft | 4 kts | 68° |
| 2026-05-01 10:43 | 48.72779 | 2.35684 | 299 ft | 4 kts | 76° |
| 2026-05-01 10:43 | 48.72776 | 2.35643 | 299 ft | 4 kts | 97° |
| 2026-05-01 10:44 | 48.72784 | 2.35606 | 300 ft | 4 kts | 128° |
| 2026-05-01 10:44 | 48.72804 | 2.35581 | 300 ft | 4 kts | 163° |
| 2026-05-01 10:44 | 48.72825 | 2.35571 | 298 ft | 1 kts | 164° |
| 2026-05-01 10:48 | 48.72821 | 2.35573 | 299 ft | 3 kts | 164° |
| 2026-05-01 10:48 | 48.72763 | 2.35598 | 299 ft | 12 kts | 164° |
| 2026-05-01 10:48 | 48.72681 | 2.35633 | 295 ft | 13 kts | 165° |
| 2026-05-01 10:48 | 48.72595 | 2.35669 | 295 ft | 13 kts | 165° |
| 2026-05-01 10:49 | 48.72504 | 2.35701 | 294 ft | 13 kts | 180° |
| 2026-05-01 10:49 | 48.72435 | 2.35626 | 294 ft | 13 kts | 205° |
| 2026-05-01 10:49 | 48.72347 | 2.35643 | 296 ft | 13 kts | 178° |
| 2026-05-01 10:49 | 48.72260 | 2.35601 | 294 ft | 13 kts | 198° |
| 2026-05-01 10:50 | 48.72186 | 2.35617 | 297 ft | 11 kts | 166° |
| 2026-05-01 10:50 | 48.72095 | 2.35659 | 298 ft | 15 kts | 151° |
| 2026-05-01 10:50 | 48.72035 | 2.35740 | 295 ft | 11 kts | 124° |
| 2026-05-01 10:50 | 48.72032 | 2.35747 | 295 ft | 0 kts | 124° |
| 2026-05-01 10:51 | 48.72030 | 2.35752 | 295 ft | 3 kts | 123° |
| 2026-05-01 10:51 | 48.72000 | 2.35828 | 296 ft | 12 kts | 120° |
| 2026-05-01 10:51 | 48.71962 | 2.35947 | 297 ft | 16 kts | 97° |
| 2026-05-01 10:52 | 48.72020 | 2.36280 | 296 ft | 65 kts | 74° |
| 2026-05-01 10:52 | 48.72130 | 2.36879 | 299 ft | 112 kts | 74° |
| 2026-05-01 10:52 | 48.72393 | 2.38309 | 355 ft | 162 kts | 74° |
| 2026-05-01 10:52 | 48.72676 | 2.39954 | 1036 ft | 160 kts | 78° |
| 2026-05-01 10:53 | 48.72934 | 2.41575 | 1947 ft | 157 kts | 78° |
| 2026-05-01 10:53 | 48.73225 | 2.43170 | 2836 ft | 157 kts | 79° |
| 2026-05-01 10:53 | 48.73530 | 2.44757 | 3632 ft | 159 kts | 79° |
| 2026-05-01 10:53 | 48.73855 | 2.46472 | 4103 ft | 181 kts | 79° |
| 2026-05-01 10:54 | 48.74063 | 2.48456 | 4515 ft | 203 kts | 88° |
| 2026-05-01 10:54 | 48.74160 | 2.50727 | 4982 ft | 228 kts | 90° |
| 2026-05-01 10:54 | 48.74241 | 2.53250 | 5477 ft | 250 kts | 89° |
| 2026-05-01 10:54 | 48.74272 | 2.55974 | 6251 ft | 259 kts | 98° |
| 2026-05-01 10:55 | 48.73687 | 2.58560 | 7108 ft | 263 kts | 122° |
| 2026-05-01 10:55 | 48.72415 | 2.60557 | 8013 ft | 268 kts | 146° |
| 2026-05-01 10:55 | 48.70672 | 2.61581 | 8968 ft | 274 kts | 169° |
| 2026-05-01 10:55 | 48.68769 | 2.61951 | 9923 ft | 278 kts | 171° |
| 2026-05-01 10:56 | 48.66838 | 2.62229 | 10670 ft | 289 kts | 177° |
| 2026-05-01 10:56 | 48.64743 | 2.61721 | 10998 ft | 318 kts | 197° |
| 2026-05-01 10:56 | 48.62775 | 2.60039 | 11599 ft | 335 kts | 217° |
| 2026-05-01 10:56 | 48.61167 | 2.57426 | 12342 ft | 344 kts | 228° |
| 2026-05-01 10:57 | 48.59634 | 2.54622 | 13142 ft | 348 kts | 228° |
| 2026-05-01 10:57 | 48.58081 | 2.51788 | 13901 ft | 352 kts | 227° |
| 2026-05-01 10:57 | 48.56504 | 2.48924 | 14601 ft | 356 kts | 227° |
| 2026-05-01 10:57 | 48.54912 | 2.46037 | 15309 ft | 360 kts | 227° |
| 2026-05-01 10:58 | 48.53283 | 2.43154 | 16012 ft | 362 kts | 223° |
| 2026-05-01 10:58 | 48.51388 | 2.40671 | 16704 ft | 361 kts | 212° |
| 2026-05-01 10:58 | 48.49242 | 2.38691 | 17406 ft | 362 kts | 207° |
| 2026-05-01 10:58 | 48.47058 | 2.36772 | 18095 ft | 365 kts | 206° |
| 2026-05-01 10:59 | 48.44855 | 2.34832 | 18748 ft | 369 kts | 206° |
| 2026-05-01 10:59 | 48.42632 | 2.32871 | 19343 ft | 372 kts | 206° |
| 2026-05-01 10:59 | 48.40388 | 2.30891 | 19935 ft | 376 kts | 206° |
| 2026-05-01 10:59 | 48.38122 | 2.28896 | 20522 ft | 379 kts | 206° |
| 2026-05-01 11:00 | 48.35829 | 2.26882 | 21105 ft | 383 kts | 206° |
| 2026-05-01 11:00 | 48.33515 | 2.24852 | 21678 ft | 387 kts | 205° |
| 2026-05-01 11:00 | 48.31089 | 2.23130 | 22233 ft | 385 kts | 195° |
| 2026-05-01 11:00 | 48.28505 | 2.22133 | 22794 ft | 384 kts | 184° |
| 2026-05-01 11:01 | 48.25847 | 2.21902 | 23352 ft | 382 kts | 173° |
| 2026-05-01 11:01 | 48.23223 | 2.22379 | 23904 ft | 381 kts | 167° |
| 2026-05-01 11:01 | 48.20590 | 2.23024 | 24368 ft | 384 kts | 167° |
| 2026-05-01 11:01 | 48.17937 | 2.23667 | 24823 ft | 387 kts | 167° |
| 2026-05-01 11:02 | 48.15267 | 2.24311 | 25273 ft | 390 kts | 167° |
| 2026-05-01 11:02 | 48.12542 | 2.24966 | 25715 ft | 393 kts | 167° |
| 2026-05-01 11:02 | 48.09833 | 2.25614 | 26147 ft | 396 kts | 167° |
| 2026-05-01 11:02 | 48.07078 | 2.26065 | 26561 ft | 401 kts | 174° |
| 2026-05-01 11:03 | 48.04276 | 2.26243 | 26978 ft | 404 kts | 174° |
| 2026-05-01 11:03 | 48.01458 | 2.26419 | 27389 ft | 407 kts | 174° |
| 2026-05-01 11:03 | 47.98615 | 2.26595 | 27795 ft | 410 kts | 175° |
| 2026-05-01 11:03 | 47.95752 | 2.26776 | 28209 ft | 413 kts | 175° |
| 2026-05-01 11:04 | 47.92875 | 2.26958 | 28609 ft | 416 kts | 175° |
| 2026-05-01 11:04 | 47.89967 | 2.27142 | 29003 ft | 419 kts | 175° |
| 2026-05-01 11:04 | 47.87107 | 2.27325 | 29386 ft | 422 kts | 175° |
| 2026-05-01 11:04 | 47.84161 | 2.27512 | 29770 ft | 425 kts | 175° |
| 2026-05-01 11:05 | 47.81200 | 2.27697 | 30144 ft | 428 kts | 176° |
| 2026-05-01 11:05 | 47.78216 | 2.27882 | 30465 ft | 431 kts | 176° |
| 2026-05-01 11:05 | 47.75209 | 2.28074 | 30766 ft | 434 kts | 176° |
| 2026-05-01 11:05 | 47.72188 | 2.28270 | 31067 ft | 436 kts | 176° |
| 2026-05-01 11:06 | 47.69146 | 2.28468 | 31374 ft | 439 kts | 176° |
| 2026-05-01 11:06 | 47.66089 | 2.28663 | 31677 ft | 441 kts | 176° |
| 2026-05-01 11:06 | 47.63015 | 2.28855 | 31979 ft | 443 kts | 176° |
| 2026-05-01 11:07 | 47.56876 | 2.29245 | 32837 ft | 441 kts | 176° |
| 2026-05-01 11:07 | 47.53811 | 2.29438 | 33175 ft | 440 kts | 176° |
| 2026-05-01 11:07 | 47.47801 | 2.29808 | 33255 ft | 421 kts | 176° |
| 2026-05-01 11:08 | 47.41963 | 2.30167 | 33254 ft | 416 kts | 176° |
| 2026-05-01 11:09 | 47.33305 | 2.30714 | 33255 ft | 415 kts | 176° |
| 2026-05-01 11:09 | 47.27541 | 2.31074 | 33255 ft | 414 kts | 176° |
| 2026-05-01 11:10 | 47.18898 | 2.31606 | 33256 ft | 414 kts | 176° |
| 2026-05-01 11:10 | 47.13148 | 2.31966 | 33255 ft | 414 kts | 176° |
| 2026-05-01 11:11 | 47.07392 | 2.32314 | 33250 ft | 414 kts | 176° |
| 2026-05-01 11:11 | 47.01647 | 2.32673 | 33254 ft | 414 kts | 176° |
| 2026-05-01 11:12 | 46.95898 | 2.33028 | 33256 ft | 413 kts | 177° |
| 2026-05-01 11:12 | 46.90150 | 2.33372 | 33255 ft | 413 kts | 177° |
| 2026-05-01 11:13 | 46.84470 | 2.34484 | 33259 ft | 413 kts | 162° |
| 2026-05-01 11:13 | 46.79366 | 2.38196 | 33250 ft | 411 kts | 146° |
| 2026-05-01 11:14 | 46.74550 | 2.42806 | 33252 ft | 411 kts | 147° |
| 2026-05-01 11:14 | 46.69755 | 2.47368 | 33248 ft | 412 kts | 147° |
| 2026-05-01 11:15 | 46.64950 | 2.51927 | 33245 ft | 412 kts | 147° |
| 2026-05-01 11:15 | 46.60142 | 2.56481 | 33242 ft | 413 kts | 147° |
| 2026-05-01 11:16 | 46.55323 | 2.61023 | 33245 ft | 413 kts | 147° |
| 2026-05-01 11:16 | 46.50504 | 2.65568 | 33246 ft | 413 kts | 147° |
| 2026-05-01 11:17 | 46.45679 | 2.70114 | 33242 ft | 414 kts | 148° |
| 2026-05-01 11:17 | 46.40848 | 2.74647 | 33247 ft | 414 kts | 148° |
| 2026-05-01 11:18 | 46.36006 | 2.79179 | 33237 ft | 414 kts | 148° |
| 2026-05-01 11:18 | 46.31166 | 2.83706 | 33240 ft | 414 kts | 148° |
| 2026-05-01 11:19 | 46.26331 | 2.88222 | 33242 ft | 415 kts | 148° |
| 2026-05-01 11:19 | 46.21444 | 2.92773 | 33245 ft | 415 kts | 148° |
| 2026-05-01 11:20 | 46.16583 | 2.97295 | 33246 ft | 415 kts | 148° |
| 2026-05-01 11:20 | 46.11724 | 3.01812 | 33244 ft | 416 kts | 148° |
| 2026-05-01 11:21 | 46.06851 | 3.06311 | 33245 ft | 416 kts | 148° |
| 2026-05-01 11:21 | 46.01982 | 3.10797 | 33233 ft | 416 kts | 148° |
| 2026-05-01 11:22 | 45.97036 | 3.15232 | 33228 ft | 415 kts | 154° |
| 2026-05-01 11:22 | 45.92535 | 3.17503 | 33229 ft | 413 kts | 170° |
| 2026-05-01 11:23 | 45.86828 | 3.17917 | 33226 ft | 411 kts | 181° |
| 2026-05-01 11:23 | 45.81097 | 3.17829 | 33227 ft | 412 kts | 181° |
| 2026-05-01 11:24 | 45.75364 | 3.17747 | 33229 ft | 412 kts | 181° |
| 2026-05-01 11:25 | 45.66766 | 3.17638 | 33233 ft | 412 kts | 181° |
| 2026-05-01 11:25 | 45.58171 | 3.17528 | 33245 ft | 411 kts | 181° |
| 2026-05-01 11:26 | 45.49588 | 3.17409 | 33243 ft | 411 kts | 182° |
| 2026-05-01 11:26 | 45.46718 | 3.17365 | 32757 ft | 412 kts | 181° |
| 2026-05-01 11:27 | 45.43872 | 3.17323 | 32264 ft | 408 kts | 182° |
| 2026-05-01 11:27 | 45.41036 | 3.17287 | 31772 ft | 405 kts | 181° |
| 2026-05-01 11:27 | 45.38236 | 3.17255 | 31296 ft | 401 kts | 182° |
| 2026-05-01 11:27 | 45.35453 | 3.17220 | 30819 ft | 398 kts | 181° |
| 2026-05-01 11:28 | 45.32653 | 3.17182 | 30338 ft | 395 kts | 182° |
| 2026-05-01 11:28 | 45.29909 | 3.17146 | 29828 ft | 392 kts | 182° |
| 2026-05-01 11:28 | 45.27233 | 3.17110 | 29388 ft | 387 kts | 181° |
| 2026-05-01 11:29 | 45.21864 | 3.17038 | 28512 ft | 380 kts | 181° |
| 2026-05-01 11:29 | 45.19234 | 3.17009 | 28093 ft | 376 kts | 181° |
| 2026-05-01 11:29 | 45.14035 | 3.16946 | 27273 ft | 371 kts | 181° |
| 2026-05-01 11:30 | 45.11467 | 3.16908 | 26863 ft | 368 kts | 181° |
| 2026-05-01 11:30 | 45.08922 | 3.16870 | 26454 ft | 364 kts | 181° |
| 2026-05-01 11:30 | 45.06397 | 3.16837 | 26051 ft | 361 kts | 181° |
| 2026-05-01 11:30 | 45.03889 | 3.16807 | 25642 ft | 359 kts | 181° |
| 2026-05-01 11:31 | 45.01402 | 3.16775 | 25219 ft | 356 kts | 181° |
| 2026-05-01 11:31 | 44.98933 | 3.16744 | 24804 ft | 354 kts | 181° |
| 2026-05-01 11:31 | 44.96471 | 3.16713 | 24353 ft | 353 kts | 181° |
| 2026-05-01 11:31 | 44.94059 | 3.16680 | 23889 ft | 351 kts | 182° |
| 2026-05-01 11:32 | 44.91625 | 3.16647 | 23400 ft | 348 kts | 181° |
| 2026-05-01 11:32 | 44.89211 | 3.16616 | 22939 ft | 345 kts | 181° |
| 2026-05-01 11:32 | 44.86821 | 3.16587 | 22485 ft | 343 kts | 181° |
| 2026-05-01 11:32 | 44.84444 | 3.16556 | 22039 ft | 340 kts | 181° |
| 2026-05-01 11:33 | 44.82082 | 3.16523 | 21597 ft | 338 kts | 182° |
| 2026-05-01 11:33 | 44.79736 | 3.16488 | 21158 ft | 336 kts | 182° |
| 2026-05-01 11:33 | 44.77403 | 3.16453 | 20722 ft | 334 kts | 181° |
| 2026-05-01 11:33 | 44.75081 | 3.16423 | 20291 ft | 333 kts | 182° |
| 2026-05-01 11:34 | 44.73223 | 3.16399 | 19951 ft | 332 kts | 181° |
| 2026-05-01 11:34 | 44.70916 | 3.16371 | 19523 ft | 331 kts | 181° |
| 2026-05-01 11:34 | 44.68618 | 3.16346 | 19096 ft | 330 kts | 181° |
| 2026-05-01 11:34 | 44.66330 | 3.16309 | 18675 ft | 328 kts | 184° |
| 2026-05-01 11:35 | 44.64126 | 3.15616 | 18222 ft | 325 kts | 205° |
| 2026-05-01 11:35 | 44.62306 | 3.13775 | 17796 ft | 324 kts | 227° |
| 2026-05-01 11:35 | 44.61143 | 3.11047 | 17385 ft | 325 kts | 250° |
| 2026-05-01 11:35 | 44.60822 | 3.07954 | 16987 ft | 326 kts | 267° |
| 2026-05-01 11:36 | 44.60820 | 3.04740 | 16571 ft | 325 kts | 267° |
| 2026-05-01 11:36 | 44.60824 | 3.01576 | 16165 ft | 324 kts | 267° |
| 2026-05-01 11:36 | 44.60827 | 2.98412 | 15758 ft | 323 kts | 268° |
| 2026-05-01 11:36 | 44.60826 | 2.95273 | 15359 ft | 322 kts | 267° |
| 2026-05-01 11:37 | 44.60821 | 2.92117 | 14955 ft | 323 kts | 266° |
| 2026-05-01 11:37 | 44.60813 | 2.89121 | 14566 ft | 322 kts | 267° |
| 2026-05-01 11:37 | 44.60804 | 2.85973 | 14158 ft | 322 kts | 267° |
| 2026-05-01 11:37 | 44.60793 | 2.82832 | 13717 ft | 321 kts | 266° |
| 2026-05-01 11:38 | 44.60782 | 2.79715 | 13310 ft | 319 kts | 267° |
| 2026-05-01 11:38 | 44.60770 | 2.76612 | 12899 ft | 316 kts | 267° |
| 2026-05-01 11:38 | 44.60757 | 2.73541 | 12495 ft | 314 kts | 267° |
| 2026-05-01 11:38 | 44.60745 | 2.70485 | 12084 ft | 313 kts | 267° |
| 2026-05-01 11:39 | 44.60735 | 2.67451 | 11835 ft | 306 kts | 267° |
| 2026-05-01 11:39 | 44.60727 | 2.64512 | 11672 ft | 296 kts | 267° |
| 2026-05-01 11:39 | 44.60716 | 2.61641 | 11352 ft | 293 kts | 267° |
| 2026-05-01 11:39 | 44.60702 | 2.58798 | 11020 ft | 290 kts | 266° |
| 2026-05-01 11:40 | 44.60689 | 2.55973 | 10664 ft | 289 kts | 267° |
| 2026-05-01 11:40 | 44.60675 | 2.53162 | 10364 ft | 288 kts | 267° |
| 2026-05-01 11:40 | 44.60660 | 2.50365 | 10044 ft | 286 kts | 267° |
| 2026-05-01 11:40 | 44.60644 | 2.47937 | 9737 ft | 285 kts | 266° |
| 2026-05-01 11:42 | 44.60638 | 2.45426 | 9258 ft | 288 kts | 266° |
| 2026-05-01 11:42 | 44.60627 | 2.42639 | 8804 ft | 282 kts | 266° |
| 2026-05-01 11:42 | 44.60608 | 2.39939 | 8514 ft | 270 kts | 266° |
| 2026-05-01 11:43 | 44.60571 | 2.37389 | 8331 ft | 253 kts | 264° |
| 2026-05-01 11:43 | 44.60517 | 2.34967 | 8156 ft | 236 kts | 261° |
| 2026-05-01 11:43 | 44.60128 | 2.32851 | 8069 ft | 223 kts | 240° |
| 2026-05-01 11:44 | 44.58004 | 2.29541 | 7360 ft | 235 kts | 218° |
| 2026-05-01 11:44 | 44.56740 | 2.28085 | 6959 ft | 237 kts | 213° |
| 2026-05-01 11:44 | 44.55205 | 2.27498 | 6486 ft | 229 kts | 174° |
| 2026-05-01 11:44 | 44.53675 | 2.28012 | 6146 ft | 224 kts | 158° |
| 2026-05-01 11:45 | 44.52351 | 2.29095 | 5880 ft | 218 kts | 143° |
| 2026-05-01 11:45 | 44.51244 | 2.30537 | 5429 ft | 217 kts | 134° |
| 2026-05-01 11:45 | 44.50233 | 2.32051 | 5049 ft | 209 kts | 134° |
| 2026-05-01 11:45 | 44.49292 | 2.33546 | 4747 ft | 197 kts | 131° |
| 2026-05-01 11:46 | 44.48468 | 2.34949 | 4564 ft | 178 kts | 130° |
| 2026-05-01 11:46 | 44.47716 | 2.36267 | 4284 ft | 168 kts | 130° |
| 2026-05-01 11:46 | 44.47010 | 2.37542 | 4040 ft | 165 kts | 130° |
| 2026-05-01 11:46 | 44.46304 | 2.38783 | 3846 ft | 160 kts | 131° |
| 2026-05-01 11:47 | 44.45615 | 2.39939 | 3620 ft | 150 kts | 131° |
| 2026-05-01 11:47 | 44.44954 | 2.41030 | 3410 ft | 145 kts | 132° |
| 2026-05-01 11:47 | 44.44328 | 2.42128 | 3095 ft | 141 kts | 130° |
| 2026-05-01 11:47 | 44.43734 | 2.43171 | 2772 ft | 130 kts | 129° |
| 2026-05-01 11:48 | 44.43187 | 2.44147 | 2577 ft | 127 kts | 131° |
| 2026-05-01 11:48 | 44.42611 | 2.45108 | 2420 ft | 129 kts | 129° |
| 2026-05-01 11:48 | 44.42049 | 2.46100 | 2228 ft | 131 kts | 128° |
| 2026-05-01 11:48 | 44.41479 | 2.47072 | 1994 ft | 128 kts | 129° |
| 2026-05-01 11:49 | 44.40950 | 2.47983 | 1913 ft | 102 kts | 129° |
| 2026-05-01 11:49 | 44.40699 | 2.48429 | 1900 ft | 19 kts | 120° |
| 2026-05-01 11:49 | 44.40665 | 2.48474 | 1909 ft | 2 kts | 266° |
| 2026-05-01 11:49 | 44.40694 | 2.48401 | 1907 ft | 14 kts | 313° |
| 2026-05-01 11:50 | 44.40786 | 2.48381 | 1914 ft | 15 kts | 27° |
| 2026-05-01 11:50 | 44.40881 | 2.48447 | 1914 ft | 16 kts | 342° |
| 2026-05-01 11:50 | 44.40926 | 2.48368 | 1914 ft | 6 kts | 305° |
| 2026-05-01 11:50 | 44.40952 | 2.48321 | 1909 ft | 4 kts | 315° |
| 2026-05-01 11:51 | 44.40958 | 2.48317 | 1908 ft | 1 kts | 337° |
| 2026-05-01 11:51 | 44.40973 | 2.48312 | 1914 ft | 3 kts | 345° |
| 2026-05-01 11:51 | 44.40995 | 2.48311 | 1914 ft | 4 kts | 19° |
| 2026-05-01 11:51 | 44.41002 | 2.48341 | 1914 ft | 3 kts | 82° |
| 2026-05-01 11:52 | 44.40991 | 2.48364 | 1909 ft | 3 kts | 141° |
| 2026-05-01 11:52 | 44.40975 | 2.48367 | 1910 ft | 2 kts | 165° |
| 2026-05-01 11:52 | 44.40974 | 2.48367 | 1910 ft | 0 kts | 166° |